Jacksonville International Airport
KJAX : now visible

Airfield :











YOU CAN JOIN US ON...

 
LOGIN :

Register | Disclaimer

   EN    FR    IT 

 









Legend :    VFR   Marginal VFR   IFR   Intensive IFR   Very Intensive IFR
Visi :
Ceiling :
>= 8 km
>= 3000ft
5 to 8 km
1000 to 3000 ft
1500m to 5 km
500 to 1000 ft
800 to 1500m
200 to 500 ft
< 800m
< 200 ft
Symbols :   Thunderstorms  Fog  Heavy snow  Heavy precipitations  Wind > 20 kt







- Airport Elevation : 30 ft
- IATA code : JAX


KJAX - Jacksonville International

CURRENT METAR :
  • 191356Z 05010KT 10SM BKN040 19/13 A3028 RMK AO2 SLP255 T01890133

EXPIRED METARs :
  • 191256Z 01005KT 10SM BKN037 BKN090 17/12 A3026 RMK AO2 SLP247 T01670122
  • 191156Z 05009KT 10SM FEW035 FEW090 17/12 A3024 RMK AO2 SLP240 T01670117 10172 20139 53004

TAF KJAX
Valid from the 19 at 12:00 until the 20 at 12:00 UTC


191136Z 1912/2012 05010KT P6SM SCT025 BKN050
FM191500 06012G20KT P6SM VCSH BKN025 OVC040
FM191800 06013G20KT 6SM -RA BR OVC010
FM192100 06015KT 5SM -RA BR SCT005 OVC007
FM200200 05010KT 5SM -RA BR OVC003
FM200500 06005KT 3SM BR OVC003
KZJX FIR / North America



MET'MAP, your aeronautical weather chart ! - Copyright ORBIFLY December 2007 - Disclaimer

ORBIFLY MET'MAP TEAM :

Programming & Development : Alexandra Zaïnal
Concept & Development : Baudouin d'Aumeries
Co-Development & Prog : Marc-Olivier Méhu
Technical & hardware support : Manuel Goepfert

Contact : metmap@orbifly.com




SOURCES & CREDITS :

   NOAA       Earth
Advisory